sensor_id;sensor_type;location;lat;lon;timestamp;P1;durP1;ratioP1;P2;durP2;ratioP2
8104;SDS011;4095;48.942;9.104;2023-04-24T00:02:03;1.90;;;1.23;;
8104;SDS011;4095;48.942;9.104;2023-04-24T00:04:29;1.77;;;1.10;;
8104;SDS011;4095;48.942;9.104;2023-04-24T00:06:56;1.10;;;0.90;;
8104;SDS011;4095;48.942;9.104;2023-04-24T00:09:24;1.13;;;1.03;;
8104;SDS011;4095;48.942;9.104;2023-04-24T00:11:51;1.77;;;1.20;;
8104;SDS011;4095;48.942;9.104;2023-04-24T00:14:17;2.70;;;1.30;;
8104;SDS011;4095;48.942;9.104;2023-04-24T00:16:43;0.97;;;0.87;;
8104;SDS011;4095;48.942;9.104;2023-04-24T00:19:08;1.73;;;1.30;;
8104;SDS011;4095;48.942;9.104;2023-04-24T00:21:34;1.60;;;1.10;;
8104;SDS011;4095;48.942;9.104;2023-04-24T00:24:00;1.63;;;1.23;;
8104;SDS011;4095;48.942;9.104;2023-04-24T00:26:25;2.07;;;1.00;;
8104;SDS011;4095;48.942;9.104;2023-04-24T00:28:51;1.23;;;1.13;;
8104;SDS011;4095;48.942;9.104;2023-04-24T00:31:16;2.30;;;0.90;;
8104;SDS011;4095;48.942;9.104;2023-04-24T00:33:42;2.00;;;1.10;;
8104;SDS011;4095;48.942;9.104;2023-04-24T00:36:07;1.97;;;1.07;;
8104;SDS011;4095;48.942;9.104;2023-04-24T00:38:33;4.70;;;1.30;;
8104;SDS011;4095;48.942;9.104;2023-04-24T00:40:59;1.83;;;1.20;;
8104;SDS011;4095;48.942;9.104;2023-04-24T00:43:24;2.00;;;1.00;;
8104;SDS011;4095;48.942;9.104;2023-04-24T00:45:50;1.20;;;0.90;;
8104;SDS011;4095;48.942;9.104;2023-04-24T00:48:16;2.47;;;1.10;;
8104;SDS011;4095;48.942;9.104;2023-04-24T00:50:42;5.17;;;1.20;;
8104;SDS011;4095;48.942;9.104;2023-04-24T00:53:07;2.93;;;1.20;;
8104;SDS011;4095;48.942;9.104;2023-04-24T00:55:33;1.73;;;1.10;;
8104;SDS011;4095;48.942;9.104;2023-04-24T00:57:58;2.73;;;1.27;;
8104;SDS011;4095;48.942;9.104;2023-04-24T01:00:24;1.53;;;0.90;;
8104;SDS011;4095;48.942;9.104;2023-04-24T01:02:50;2.50;;;1.13;;
8104;SDS011;4095;48.942;9.104;2023-04-24T01:05:17;2.03;;;0.90;;
8104;SDS011;4095;48.942;9.104;2023-04-24T01:07:44;1.10;;;0.90;;
8104;SDS011;4095;48.942;9.104;2023-04-24T01:10:14;1.03;;;0.93;;
8104;SDS011;4095;48.942;9.104;2023-04-24T01:12:40;1.57;;;0.93;;
8104;SDS011;4095;48.942;9.104;2023-04-24T01:15:06;1.67;;;0.93;;
8104;SDS011;4095;48.942;9.104;2023-04-24T01:17:32;1.57;;;0.97;;
8104;SDS011;4095;48.942;9.104;2023-04-24T01:19:58;1.93;;;0.90;;
8104;SDS011;4095;48.942;9.104;2023-04-24T01:22:25;1.47;;;0.90;;
8104;SDS011;4095;48.942;9.104;2023-04-24T01:24:51;1.70;;;0.97;;
8104;SDS011;4095;48.942;9.104;2023-04-24T01:27:18;1.13;;;0.97;;
8104;SDS011;4095;48.942;9.104;2023-04-24T01:29:44;1.33;;;0.80;;
8104;SDS011;4095;48.942;9.104;2023-04-24T01:32:10;2.23;;;0.90;;
8104;SDS011;4095;48.942;9.104;2023-04-24T01:34:37;2.10;;;1.10;;
8104;SDS011;4095;48.942;9.104;2023-04-24T01:37:03;1.33;;;0.87;;
8104;SDS011;4095;48.942;9.104;2023-04-24T01:39:30;1.73;;;1.10;;
8104;SDS011;4095;48.942;9.104;2023-04-24T01:41:56;1.17;;;0.93;;
8104;SDS011;4095;48.942;9.104;2023-04-24T01:44:22;3.07;;;1.03;;
8104;SDS011;4095;48.942;9.104;2023-04-24T01:46:48;1.30;;;0.87;;
8104;SDS011;4095;48.942;9.104;2023-04-24T01:49:13;2.40;;;1.10;;
8104;SDS011;4095;48.942;9.104;2023-04-24T01:51:39;1.03;;;0.93;;
8104;SDS011;4095;48.942;9.104;2023-04-24T01:54:05;1.77;;;0.97;;
8104;SDS011;4095;48.942;9.104;2023-04-24T01:56:31;0.87;;;0.70;;
8104;SDS011;4095;48.942;9.104;2023-04-24T01:58:59;1.87;;;1.10;;
8104;SDS011;4095;48.942;9.104;2023-04-24T02:01:27;1.30;;;0.90;;
8104;SDS011;4095;48.942;9.104;2023-04-24T02:03:57;1.93;;;1.10;;
8104;SDS011;4095;48.942;9.104;2023-04-24T02:06:23;2.53;;;0.90;;
8104;SDS011;4095;48.942;9.104;2023-04-24T02:08:48;3.10;;;1.27;;
8104;SDS011;4095;48.942;9.104;2023-04-24T02:11:14;1.73;;;1.20;;
8104;SDS011;4095;48.942;9.104;2023-04-24T02:13:40;1.30;;;1.00;;
8104;SDS011;4095;48.942;9.104;2023-04-24T02:16:05;3.70;;;0.93;;
8104;SDS011;4095;48.942;9.104;2023-04-24T02:18:31;2.30;;;0.97;;
8104;SDS011;4095;48.942;9.104;2023-04-24T02:20:56;1.30;;;0.87;;
8104;SDS011;4095;48.942;9.104;2023-04-24T02:23:22;1.13;;;1.03;;
8104;SDS011;4095;48.942;9.104;2023-04-24T02:25:47;1.93;;;1.10;;
8104;SDS011;4095;48.942;9.104;2023-04-24T02:28:13;1.47;;;0.80;;
8104;SDS011;4095;48.942;9.104;2023-04-24T02:30:39;1.83;;;0.90;;
8104;SDS011;4095;48.942;9.104;2023-04-24T02:33:04;2.30;;;1.00;;
8104;SDS011;4095;48.942;9.104;2023-04-24T02:35:30;2.37;;;1.07;;
8104;SDS011;4095;48.942;9.104;2023-04-24T02:37:56;2.30;;;1.20;;
8104;SDS011;4095;48.942;9.104;2023-04-24T02:40:21;2.17;;;1.10;;
8104;SDS011;4095;48.942;9.104;2023-04-24T02:42:47;0.80;;;0.80;;
8104;SDS011;4095;48.942;9.104;2023-04-24T02:45:12;2.30;;;1.33;;
8104;SDS011;4095;48.942;9.104;2023-04-24T02:47:38;1.57;;;1.00;;
8104;SDS011;4095;48.942;9.104;2023-04-24T02:50:03;3.00;;;1.10;;
8104;SDS011;4095;48.942;9.104;2023-04-24T02:52:29;1.50;;;1.03;;
8104;SDS011;4095;48.942;9.104;2023-04-24T02:54:55;3.03;;;1.40;;
8104;SDS011;4095;48.942;9.104;2023-04-24T02:57:21;1.40;;;1.10;;
8104;SDS011;4095;48.942;9.104;2023-04-24T02:59:46;2.90;;;1.30;;
8104;SDS011;4095;48.942;9.104;2023-04-24T03:02:12;1.93;;;1.20;;
8104;SDS011;4095;48.942;9.104;2023-04-24T03:04:37;3.33;;;1.10;;
8104;SDS011;4095;48.942;9.104;2023-04-24T03:07:04;2.77;;;1.20;;
8104;SDS011;4095;48.942;9.104;2023-04-24T03:09:30;1.33;;;1.03;;
8104;SDS011;4095;48.942;9.104;2023-04-24T03:11:56;1.63;;;0.80;;
8104;SDS011;4095;48.942;9.104;2023-04-24T03:14:22;2.40;;;0.90;;
8104;SDS011;4095;48.942;9.104;2023-04-24T03:16:47;3.03;;;1.00;;
8104;SDS011;4095;48.942;9.104;2023-04-24T03:19:13;1.70;;;0.90;;
8104;SDS011;4095;48.942;9.104;2023-04-24T03:21:39;1.70;;;0.97;;
8104;SDS011;4095;48.942;9.104;2023-04-24T03:24:06;2.13;;;0.90;;
8104;SDS011;4095;48.942;9.104;2023-04-24T03:26:34;1.80;;;1.03;;
8104;SDS011;4095;48.942;9.104;2023-04-24T03:29:00;2.77;;;1.37;;
8104;SDS011;4095;48.942;9.104;2023-04-24T03:31:26;1.73;;;1.00;;
8104;SDS011;4095;48.942;9.104;2023-04-24T03:33:52;1.50;;;0.97;;
8104;SDS011;4095;48.942;9.104;2023-04-24T03:36:17;1.33;;;0.97;;
8104;SDS011;4095;48.942;9.104;2023-04-24T03:38:44;1.10;;;1.00;;
8104;SDS011;4095;48.942;9.104;2023-04-24T03:41:10;1.80;;;0.93;;
8104;SDS011;4095;48.942;9.104;2023-04-24T03:43:36;1.57;;;0.97;;
8104;SDS011;4095;48.942;9.104;2023-04-24T03:46:02;1.77;;;0.90;;
8104;SDS011;4095;48.942;9.104;2023-04-24T03:48:27;1.80;;;1.13;;
8104;SDS011;4095;48.942;9.104;2023-04-24T03:50:53;2.73;;;1.10;;
8104;SDS011;4095;48.942;9.104;2023-04-24T03:53:19;2.53;;;1.30;;
8104;SDS011;4095;48.942;9.104;2023-04-24T03:55:44;1.43;;;1.10;;
8104;SDS011;4095;48.942;9.104;2023-04-24T03:58:10;3.07;;;1.20;;
8104;SDS011;4095;48.942;9.104;2023-04-24T04:00:36;3.13;;;1.17;;
8104;SDS011;4095;48.942;9.104;2023-04-24T04:03:02;1.27;;;1.00;;
8104;SDS011;4095;48.942;9.104;2023-04-24T04:05:28;1.50;;;1.13;;
8104;SDS011;4095;48.942;9.104;2023-04-24T04:07:54;2.83;;;1.30;;
8104;SDS011;4095;48.942;9.104;2023-04-24T04:10:20;2.03;;;1.00;;
8104;SDS011;4095;48.942;9.104;2023-04-24T04:12:45;1.83;;;1.10;;
8104;SDS011;4095;48.942;9.104;2023-04-24T04:15:11;1.53;;;1.23;;
8104;SDS011;4095;48.942;9.104;2023-04-24T04:17:36;1.83;;;1.07;;
8104;SDS011;4095;48.942;9.104;2023-04-24T04:20:03;1.77;;;1.20;;
8104;SDS011;4095;48.942;9.104;2023-04-24T04:22:33;1.60;;;1.13;;
8104;SDS011;4095;48.942;9.104;2023-04-24T04:24:59;2.10;;;1.33;;
8104;SDS011;4095;48.942;9.104;2023-04-24T04:27:24;3.00;;;1.20;;
8104;SDS011;4095;48.942;9.104;2023-04-24T04:29:51;1.70;;;1.30;;
8104;SDS011;4095;48.942;9.104;2023-04-24T04:32:17;1.90;;;1.20;;
8104;SDS011;4095;48.942;9.104;2023-04-24T04:34:43;1.97;;;1.40;;
8104;SDS011;4095;48.942;9.104;2023-04-24T04:37:10;1.77;;;1.30;;
8104;SDS011;4095;48.942;9.104;2023-04-24T04:39:37;1.60;;;1.30;;
8104;SDS011;4095;48.942;9.104;2023-04-24T04:42:03;1.60;;;1.30;;
8104;SDS011;4095;48.942;9.104;2023-04-24T04:44:29;2.50;;;1.30;;
8104;SDS011;4095;48.942;9.104;2023-04-24T04:46:55;2.50;;;1.50;;
8104;SDS011;4095;48.942;9.104;2023-04-24T04:49:21;3.43;;;1.47;;
8104;SDS011;4095;48.942;9.104;2023-04-24T04:51:48;1.90;;;1.80;;
8104;SDS011;4095;48.942;9.104;2023-04-24T04:54:15;1.90;;;1.40;;
8104;SDS011;4095;48.942;9.104;2023-04-24T04:56:41;1.50;;;1.30;;
8104;SDS011;4095;48.942;9.104;2023-04-24T04:59:07;2.60;;;1.27;;
8104;SDS011;4095;48.942;9.104;2023-04-24T05:01:32;4.50;;;1.50;;
8104;SDS011;4095;48.942;9.104;2023-04-24T05:03:58;2.03;;;1.50;;
8104;SDS011;4095;48.942;9.104;2023-04-24T05:06:23;2.90;;;1.80;;
8104;SDS011;4095;48.942;9.104;2023-04-24T05:08:50;2.97;;;1.60;;
8104;SDS011;4095;48.942;9.104;2023-04-24T05:11:16;2.33;;;1.80;;
8104;SDS011;4095;48.942;9.104;2023-04-24T05:13:41;2.90;;;1.90;;
8104;SDS011;4095;48.942;9.104;2023-04-24T05:16:07;2.57;;;2.10;;
8104;SDS011;4095;48.942;9.104;2023-04-24T05:18:33;4.53;;;1.87;;
8104;SDS011;4095;48.942;9.104;2023-04-24T05:20:58;1.50;;;1.40;;
8104;SDS011;4095;48.942;9.104;2023-04-24T05:23:24;2.53;;;1.90;;
8104;SDS011;4095;48.942;9.104;2023-04-24T05:25:49;1.83;;;1.67;;
8104;SDS011;4095;48.942;9.104;2023-04-24T05:28:15;2.53;;;1.80;;
8104;SDS011;4095;48.942;9.104;2023-04-24T05:30:41;1.93;;;1.83;;
8104;SDS011;4095;48.942;9.104;2023-04-24T05:33:06;2.20;;;1.97;;
8104;SDS011;4095;48.942;9.104;2023-04-24T05:35:33;3.77;;;2.10;;
8104;SDS011;4095;48.942;9.104;2023-04-24T05:37:59;3.43;;;2.67;;
8104;SDS011;4095;48.942;9.104;2023-04-24T05:40:24;4.10;;;2.23;;
8104;SDS011;4095;48.942;9.104;2023-04-24T05:42:50;2.90;;;2.00;;
8104;SDS011;4095;48.942;9.104;2023-04-24T05:45:15;4.43;;;2.33;;
8104;SDS011;4095;48.942;9.104;2023-04-24T05:47:42;2.50;;;2.30;;
8104;SDS011;4095;48.942;9.104;2023-04-24T05:50:11;3.57;;;2.40;;
8104;SDS011;4095;48.942;9.104;2023-04-24T05:52:37;3.77;;;2.47;;
8104;SDS011;4095;48.942;9.104;2023-04-24T05:55:03;2.33;;;2.13;;
8104;SDS011;4095;48.942;9.104;2023-04-24T05:57:29;2.10;;;1.90;;
8104;SDS011;4095;48.942;9.104;2023-04-24T05:59:55;2.40;;;2.00;;
8104;SDS011;4095;48.942;9.104;2023-04-24T06:02:21;5.27;;;2.47;;
8104;SDS011;4095;48.942;9.104;2023-04-24T06:04:46;3.40;;;2.23;;
8104;SDS011;4095;48.942;9.104;2023-04-24T06:07:12;3.63;;;2.13;;
8104;SDS011;4095;48.942;9.104;2023-04-24T06:09:38;3.23;;;2.00;;
8104;SDS011;4095;48.942;9.104;2023-04-24T06:12:03;2.77;;;2.23;;
8104;SDS011;4095;48.942;9.104;2023-04-24T06:14:29;2.43;;;2.23;;
8104;SDS011;4095;48.942;9.104;2023-04-24T06:16:55;3.03;;;2.10;;
8104;SDS011;4095;48.942;9.104;2023-04-24T06:19:20;2.40;;;2.20;;
8104;SDS011;4095;48.942;9.104;2023-04-24T06:21:46;3.00;;;2.20;;
8104;SDS011;4095;48.942;9.104;2023-04-24T06:24:13;2.40;;;2.20;;
8104;SDS011;4095;48.942;9.104;2023-04-24T06:26:41;2.17;;;1.97;;
8104;SDS011;4095;48.942;9.104;2023-04-24T06:29:06;2.37;;;2.10;;
8104;SDS011;4095;48.942;9.104;2023-04-24T06:31:32;3.63;;;2.30;;
8104;SDS011;4095;48.942;9.104;2023-04-24T06:34:02;3.03;;;2.27;;
8104;SDS011;4095;48.942;9.104;2023-04-24T06:36:28;2.80;;;2.23;;
8104;SDS011;4095;48.942;9.104;2023-04-24T06:38:53;2.83;;;1.97;;
8104;SDS011;4095;48.942;9.104;2023-04-24T06:41:19;4.23;;;2.00;;
8104;SDS011;4095;48.942;9.104;2023-04-24T06:43:45;3.30;;;2.50;;
8104;SDS011;4095;48.942;9.104;2023-04-24T06:46:10;2.53;;;2.00;;
8104;SDS011;4095;48.942;9.104;2023-04-24T06:48:37;2.07;;;1.97;;
8104;SDS011;4095;48.942;9.104;2023-04-24T06:51:02;2.97;;;2.03;;
8104;SDS011;4095;48.942;9.104;2023-04-24T06:53:28;2.43;;;2.20;;
8104;SDS011;4095;48.942;9.104;2023-04-24T06:55:53;2.77;;;2.43;;
8104;SDS011;4095;48.942;9.104;2023-04-24T06:58:19;2.10;;;1.90;;
8104;SDS011;4095;48.942;9.104;2023-04-24T07:00:45;3.80;;;1.83;;
8104;SDS011;4095;48.942;9.104;2023-04-24T07:03:11;2.03;;;1.87;;
8104;SDS011;4095;48.942;9.104;2023-04-24T07:05:36;3.87;;;2.37;;
8104;SDS011;4095;48.942;9.104;2023-04-24T07:08:03;2.73;;;2.10;;
8104;SDS011;4095;48.942;9.104;2023-04-24T07:10:28;1.80;;;1.70;;
8104;SDS011;4095;48.942;9.104;2023-04-24T07:12:55;2.67;;;2.07;;
8104;SDS011;4095;48.942;9.104;2023-04-24T07:15:21;2.43;;;2.17;;
8104;SDS011;4095;48.942;9.104;2023-04-24T07:17:48;4.40;;;2.00;;
8104;SDS011;4095;48.942;9.104;2023-04-24T07:20:14;2.33;;;2.00;;
8104;SDS011;4095;48.942;9.104;2023-04-24T07:22:40;2.60;;;2.30;;
8104;SDS011;4095;48.942;9.104;2023-04-24T07:25:06;2.27;;;1.90;;
8104;SDS011;4095;48.942;9.104;2023-04-24T07:27:32;4.13;;;2.07;;
8104;SDS011;4095;48.942;9.104;2023-04-24T07:29:59;1.87;;;1.60;;
8104;SDS011;4095;48.942;9.104;2023-04-24T07:32:24;2.10;;;1.90;;
8104;SDS011;4095;48.942;9.104;2023-04-24T07:34:50;2.70;;;1.97;;
8104;SDS011;4095;48.942;9.104;2023-04-24T07:37:15;3.10;;;1.57;;
8104;SDS011;4095;48.942;9.104;2023-04-24T07:39:41;2.70;;;2.10;;
8104;SDS011;4095;48.942;9.104;2023-04-24T07:42:07;2.03;;;1.70;;
8104;SDS011;4095;48.942;9.104;2023-04-24T07:44:33;3.13;;;1.70;;
8104;SDS011;4095;48.942;9.104;2023-04-24T07:46:58;1.80;;;1.50;;
8104;SDS011;4095;48.942;9.104;2023-04-24T07:49:24;2.20;;;1.93;;
8104;SDS011;4095;48.942;9.104;2023-04-24T07:51:50;3.30;;;1.70;;
8104;SDS011;4095;48.942;9.104;2023-04-24T07:54:15;4.20;;;1.90;;
8104;SDS011;4095;48.942;9.104;2023-04-24T07:56:41;4.63;;;1.80;;
8104;SDS011;4095;48.942;9.104;2023-04-24T07:59:08;2.17;;;1.60;;
8104;SDS011;4095;48.942;9.104;2023-04-24T08:01:35;2.43;;;1.70;;
8104;SDS011;4095;48.942;9.104;2023-04-24T08:04:00;2.90;;;1.70;;
8104;SDS011;4095;48.942;9.104;2023-04-24T08:06:26;3.03;;;1.80;;
8104;SDS011;4095;48.942;9.104;2023-04-24T08:08:55;3.60;;;1.43;;
8104;SDS011;4095;48.942;9.104;2023-04-24T08:11:21;2.33;;;1.57;;
8104;SDS011;4095;48.942;9.104;2023-04-24T08:13:47;2.40;;;1.50;;
8104;SDS011;4095;48.942;9.104;2023-04-24T08:16:12;3.30;;;1.90;;
8104;SDS011;4095;48.942;9.104;2023-04-24T08:18:38;3.07;;;1.73;;
8104;SDS011;4095;48.942;9.104;2023-04-24T08:21:03;3.43;;;1.53;;
8104;SDS011;4095;48.942;9.104;2023-04-24T08:23:29;3.50;;;1.80;;
8104;SDS011;4095;48.942;9.104;2023-04-24T08:25:55;2.60;;;1.60;;
8104;SDS011;4095;48.942;9.104;2023-04-24T08:28:21;3.47;;;1.80;;
8104;SDS011;4095;48.942;9.104;2023-04-24T08:30:48;2.40;;;1.60;;
8104;SDS011;4095;48.942;9.104;2023-04-24T08:33:19;2.57;;;1.73;;
8104;SDS011;4095;48.942;9.104;2023-04-24T08:35:48;3.43;;;1.63;;
8104;SDS011;4095;48.942;9.104;2023-04-24T08:38:13;2.50;;;1.50;;
8104;SDS011;4095;48.942;9.104;2023-04-24T08:40:39;2.30;;;1.30;;
8104;SDS011;4095;48.942;9.104;2023-04-24T08:43:05;1.47;;;1.03;;
8104;SDS011;4095;48.942;9.104;2023-04-24T08:45:32;2.97;;;1.40;;
8104;SDS011;4095;48.942;9.104;2023-04-24T08:47:58;1.50;;;1.30;;
8104;SDS011;4095;48.942;9.104;2023-04-24T08:50:24;2.27;;;1.50;;
8104;SDS011;4095;48.942;9.104;2023-04-24T08:52:50;2.30;;;1.60;;
8104;SDS011;4095;48.942;9.104;2023-04-24T08:55:20;2.10;;;1.30;;
8104;SDS011;4095;48.942;9.104;2023-04-24T08:57:50;4.50;;;1.50;;
8104;SDS011;4095;48.942;9.104;2023-04-24T09:00:18;2.37;;;1.40;;
8104;SDS011;4095;48.942;9.104;2023-04-24T09:02:45;3.53;;;1.57;;
8104;SDS011;4095;48.942;9.104;2023-04-24T09:05:13;1.70;;;1.30;;
8104;SDS011;4095;48.942;9.104;2023-04-24T09:07:41;2.80;;;1.60;;
8104;SDS011;4095;48.942;9.104;2023-04-24T09:10:14;2.63;;;1.30;;
8104;SDS011;4095;48.942;9.104;2023-04-24T09:12:40;2.47;;;1.70;;
8104;SDS011;4095;48.942;9.104;2023-04-24T09:15:07;2.53;;;1.40;;
8104;SDS011;4095;48.942;9.104;2023-04-24T09:17:33;4.03;;;1.50;;
8104;SDS011;4095;48.942;9.104;2023-04-24T09:20:00;2.47;;;1.70;;
8104;SDS011;4095;48.942;9.104;2023-04-24T09:22:28;3.17;;;1.50;;
8104;SDS011;4095;48.942;9.104;2023-04-24T09:25:07;2.13;;;1.30;;
8104;SDS011;4095;48.942;9.104;2023-04-24T09:27:34;1.30;;;1.20;;
8104;SDS011;4095;48.942;9.104;2023-04-24T09:30:00;2.67;;;1.20;;
8104;SDS011;4095;48.942;9.104;2023-04-24T09:32:27;1.13;;;1.03;;
8104;SDS011;4095;48.942;9.104;2023-04-24T09:35:14;2.23;;;1.10;;
8104;SDS011;4095;48.942;9.104;2023-04-24T09:37:45;1.70;;;1.60;;
8104;SDS011;4095;48.942;9.104;2023-04-24T09:40:16;2.47;;;1.50;;
8104;SDS011;4095;48.942;9.104;2023-04-24T09:42:55;2.27;;;1.30;;
8104;SDS011;4095;48.942;9.104;2023-04-24T09:45:35;2.50;;;1.40;;
8104;SDS011;4095;48.942;9.104;2023-04-24T09:48:02;1.77;;;1.20;;
8104;SDS011;4095;48.942;9.104;2023-04-24T09:50:29;1.70;;;1.27;;
8104;SDS011;4095;48.942;9.104;2023-04-24T09:53:05;2.03;;;1.23;;
8104;SDS011;4095;48.942;9.104;2023-04-24T09:55:33;1.60;;;1.30;;
8104;SDS011;4095;48.942;9.104;2023-04-24T09:58:04;1.37;;;1.20;;
8104;SDS011;4095;48.942;9.104;2023-04-24T10:00:33;1.47;;;1.30;;
8104;SDS011;4095;48.942;9.104;2023-04-24T10:03:03;4.80;;;1.50;;
8104;SDS011;4095;48.942;9.104;2023-04-24T10:05:33;2.20;;;1.53;;
8104;SDS011;4095;48.942;9.104;2023-04-24T10:08:01;1.73;;;1.50;;
8104;SDS011;4095;48.942;9.104;2023-04-24T10:10:29;2.97;;;1.53;;
8104;SDS011;4095;48.942;9.104;2023-04-24T10:12:55;1.80;;;1.13;;
8104;SDS011;4095;48.942;9.104;2023-04-24T10:15:21;2.67;;;1.37;;
8104;SDS011;4095;48.942;9.104;2023-04-24T10:17:48;2.57;;;1.53;;
8104;SDS011;4095;48.942;9.104;2023-04-24T10:20:19;1.70;;;1.40;;
8104;SDS011;4095;48.942;9.104;2023-04-24T10:22:49;2.37;;;1.13;;
8104;SDS011;4095;48.942;9.104;2023-04-24T10:25:21;1.50;;;1.37;;
8104;SDS011;4095;48.942;9.104;2023-04-24T10:27:49;1.70;;;1.47;;
8104;SDS011;4095;48.942;9.104;2023-04-24T10:30:16;3.43;;;1.80;;
8104;SDS011;4095;48.942;9.104;2023-04-24T10:32:43;2.37;;;1.60;;
8104;SDS011;4095;48.942;9.104;2023-04-24T10:35:12;5.03;;;1.80;;
8104;SDS011;4095;48.942;9.104;2023-04-24T10:37:48;2.93;;;1.70;;
8104;SDS011;4095;48.942;9.104;2023-04-24T10:40:25;5.63;;;1.80;;
8104;SDS011;4095;48.942;9.104;2023-04-24T10:42:52;2.37;;;1.87;;
8104;SDS011;4095;48.942;9.104;2023-04-24T10:45:19;3.27;;;1.83;;
8104;SDS011;4095;48.942;9.104;2023-04-24T10:48:07;2.00;;;1.80;;
8104;SDS011;4095;48.942;9.104;2023-04-24T10:50:51;2.20;;;2.00;;
8104;SDS011;4095;48.942;9.104;2023-04-24T10:53:20;2.63;;;1.87;;
8104;SDS011;4095;48.942;9.104;2023-04-24T10:58:23;3.13;;;1.60;;
8104;SDS011;4095;48.942;9.104;2023-04-24T11:00:57;2.33;;;1.60;;
8104;SDS011;4095;48.942;9.104;2023-04-24T11:03:33;2.63;;;1.93;;
8104;SDS011;4095;48.942;9.104;2023-04-24T11:06:07;3.00;;;1.50;;
8104;SDS011;4095;48.942;9.104;2023-04-24T11:08:43;2.57;;;1.60;;
8104;SDS011;4095;48.942;9.104;2023-04-24T11:11:11;3.20;;;1.57;;
8104;SDS011;4095;48.942;9.104;2023-04-24T11:19:08;2.00;;;1.70;;
8104;SDS011;4095;48.942;9.104;2023-04-24T11:21:47;1.93;;;1.60;;
8104;SDS011;4095;48.942;9.104;2023-04-24T11:32:14;1.80;;;1.70;;
8104;SDS011;4095;48.942;9.104;2023-04-24T11:34:48;3.23;;;1.80;;
8104;SDS011;4095;48.942;9.104;2023-04-24T11:37:15;3.60;;;1.60;;
8104;SDS011;4095;48.942;9.104;2023-04-24T11:39:41;2.03;;;1.77;;
8104;SDS011;4095;48.942;9.104;2023-04-24T11:42:07;4.77;;;1.73;;
8104;SDS011;4095;48.942;9.104;2023-04-24T11:44:34;3.60;;;1.67;;
8104;SDS011;4095;48.942;9.104;2023-04-24T11:47:04;1.73;;;1.60;;
8104;SDS011;4095;48.942;9.104;2023-04-24T11:49:30;2.17;;;1.60;;
8104;SDS011;4095;48.942;9.104;2023-04-24T11:51:56;1.83;;;1.60;;
8104;SDS011;4095;48.942;9.104;2023-04-24T11:54:21;1.87;;;1.73;;
8104;SDS011;4095;48.942;9.104;2023-04-24T11:56:47;2.13;;;1.83;;
8104;SDS011;4095;48.942;9.104;2023-04-24T11:59:15;3.20;;;1.90;;
8104;SDS011;4095;48.942;9.104;2023-04-24T12:01:46;2.47;;;2.00;;
8104;SDS011;4095;48.942;9.104;2023-04-24T12:04:13;3.03;;;2.03;;
8104;SDS011;4095;48.942;9.104;2023-04-24T12:06:41;3.20;;;2.17;;
8104;SDS011;4095;48.942;9.104;2023-04-24T12:09:24;2.83;;;1.70;;
8104;SDS011;4095;48.942;9.104;2023-04-24T12:11:53;2.80;;;2.00;;
8104;SDS011;4095;48.942;9.104;2023-04-24T12:14:21;3.73;;;2.17;;
8104;SDS011;4095;48.942;9.104;2023-04-24T12:16:48;3.23;;;2.17;;
8104;SDS011;4095;48.942;9.104;2023-04-24T12:19:21;2.70;;;1.90;;
8104;SDS011;4095;48.942;9.104;2023-04-24T12:22:03;3.13;;;1.93;;
8104;SDS011;4095;48.942;9.104;2023-04-24T12:24:30;3.13;;;1.70;;
8104;SDS011;4095;48.942;9.104;2023-04-24T12:26:56;2.37;;;1.60;;
8104;SDS011;4095;48.942;9.104;2023-04-24T12:29:26;2.87;;;1.70;;
8104;SDS011;4095;48.942;9.104;2023-04-24T12:31:52;1.93;;;1.50;;
8104;SDS011;4095;48.942;9.104;2023-04-24T12:34:21;2.80;;;1.70;;
8104;SDS011;4095;48.942;9.104;2023-04-24T12:36:49;3.10;;;1.90;;
8104;SDS011;4095;48.942;9.104;2023-04-24T12:39:18;2.83;;;1.90;;
8104;SDS011;4095;48.942;9.104;2023-04-24T12:41:54;2.00;;;1.80;;
8104;SDS011;4095;48.942;9.104;2023-04-24T12:44:30;2.30;;;1.90;;
8104;SDS011;4095;48.942;9.104;2023-04-24T12:47:00;4.60;;;2.23;;
8104;SDS011;4095;48.942;9.104;2023-04-24T12:49:26;3.13;;;2.20;;
8104;SDS011;4095;48.942;9.104;2023-04-24T12:51:52;3.50;;;2.33;;
8104;SDS011;4095;48.942;9.104;2023-04-24T12:54:18;2.83;;;2.07;;
8104;SDS011;4095;48.942;9.104;2023-04-24T12:56:44;4.10;;;2.40;;
8104;SDS011;4095;48.942;9.104;2023-04-24T12:59:10;3.20;;;2.20;;
8104;SDS011;4095;48.942;9.104;2023-04-24T13:01:35;3.40;;;2.20;;
8104;SDS011;4095;48.942;9.104;2023-04-24T13:04:01;3.33;;;2.40;;
8104;SDS011;4095;48.942;9.104;2023-04-24T13:06:26;3.93;;;2.63;;
8104;SDS011;4095;48.942;9.104;2023-04-24T13:08:52;2.93;;;2.63;;
8104;SDS011;4095;48.942;9.104;2023-04-24T13:11:19;3.53;;;2.47;;
8104;SDS011;4095;48.942;9.104;2023-04-24T13:13:46;2.30;;;2.10;;
8104;SDS011;4095;48.942;9.104;2023-04-24T13:16:12;3.30;;;2.27;;
8104;SDS011;4095;48.942;9.104;2023-04-24T13:18:37;2.40;;;1.80;;
8104;SDS011;4095;48.942;9.104;2023-04-24T13:21:03;2.83;;;2.00;;
8104;SDS011;4095;48.942;9.104;2023-04-24T13:23:28;2.27;;;1.97;;
8104;SDS011;4095;48.942;9.104;2023-04-24T13:25:54;1.70;;;1.60;;
8104;SDS011;4095;48.942;9.104;2023-04-24T13:28:22;4.40;;;2.40;;
8104;SDS011;4095;48.942;9.104;2023-04-24T13:30:48;3.50;;;2.27;;
8104;SDS011;4095;48.942;9.104;2023-04-24T13:33:14;3.73;;;2.30;;
8104;SDS011;4095;48.942;9.104;2023-04-24T13:35:39;3.90;;;2.70;;
8104;SDS011;4095;48.942;9.104;2023-04-24T13:38:05;3.63;;;2.67;;
8104;SDS011;4095;48.942;9.104;2023-04-24T13:40:31;3.60;;;2.30;;
8104;SDS011;4095;48.942;9.104;2023-04-24T13:42:57;2.43;;;2.20;;
8104;SDS011;4095;48.942;9.104;2023-04-24T13:45:23;3.07;;;2.50;;
8104;SDS011;4095;48.942;9.104;2023-04-24T13:47:48;2.20;;;2.00;;
8104;SDS011;4095;48.942;9.104;2023-04-24T13:50:14;2.20;;;2.00;;
8104;SDS011;4095;48.942;9.104;2023-04-24T13:52:40;2.53;;;1.97;;
8104;SDS011;4095;48.942;9.104;2023-04-24T13:55:06;3.70;;;2.60;;
8104;SDS011;4095;48.942;9.104;2023-04-24T13:57:32;4.40;;;2.27;;
8104;SDS011;4095;48.942;9.104;2023-04-24T13:59:57;3.83;;;2.40;;
8104;SDS011;4095;48.942;9.104;2023-04-24T14:02:27;4.20;;;2.53;;
8104;SDS011;4095;48.942;9.104;2023-04-24T14:04:52;2.20;;;2.00;;
8104;SDS011;4095;48.942;9.104;2023-04-24T14:07:18;3.20;;;1.90;;
8104;SDS011;4095;48.942;9.104;2023-04-24T14:09:43;2.20;;;1.93;;
8104;SDS011;4095;48.942;9.104;2023-04-24T14:12:09;3.53;;;2.43;;
8104;SDS011;4095;48.942;9.104;2023-04-24T14:14:35;3.90;;;2.40;;
8104;SDS011;4095;48.942;9.104;2023-04-24T14:17:00;2.90;;;2.40;;
8104;SDS011;4095;48.942;9.104;2023-04-24T14:19:26;3.10;;;2.43;;
8104;SDS011;4095;48.942;9.104;2023-04-24T14:21:51;3.60;;;2.50;;
8104;SDS011;4095;48.942;9.104;2023-04-24T14:24:17;2.37;;;2.17;;
8104;SDS011;4095;48.942;9.104;2023-04-24T14:26:43;2.83;;;2.30;;
8104;SDS011;4095;48.942;9.104;2023-04-24T14:29:09;2.63;;;2.33;;
8104;SDS011;4095;48.942;9.104;2023-04-24T14:31:35;2.43;;;2.10;;
8104;SDS011;4095;48.942;9.104;2023-04-24T14:34:00;2.67;;;2.10;;
8104;SDS011;4095;48.942;9.104;2023-04-24T14:36:26;2.40;;;1.90;;
8104;SDS011;4095;48.942;9.104;2023-04-24T14:38:51;2.90;;;2.00;;
8104;SDS011;4095;48.942;9.104;2023-04-24T14:41:17;2.33;;;1.70;;
8104;SDS011;4095;48.942;9.104;2023-04-24T14:43:43;3.27;;;2.00;;
8104;SDS011;4095;48.942;9.104;2023-04-24T14:46:08;2.20;;;1.80;;
8104;SDS011;4095;48.942;9.104;2023-04-24T14:48:34;2.67;;;1.77;;
8104;SDS011;4095;48.942;9.104;2023-04-24T14:50:59;1.60;;;1.50;;
8104;SDS011;4095;48.942;9.104;2023-04-24T14:53:25;2.30;;;1.60;;
8104;SDS011;4095;48.942;9.104;2023-04-24T14:55:50;2.73;;;2.10;;
8104;SDS011;4095;48.942;9.104;2023-04-24T14:58:16;2.10;;;1.60;;
8104;SDS011;4095;48.942;9.104;2023-04-24T15:00:42;1.57;;;1.47;;
8104;SDS011;4095;48.942;9.104;2023-04-24T15:03:07;1.60;;;1.50;;
8104;SDS011;4095;48.942;9.104;2023-04-24T15:05:33;1.60;;;1.50;;
8104;SDS011;4095;48.942;9.104;2023-04-24T15:07:59;2.40;;;1.57;;
8104;SDS011;4095;48.942;9.104;2023-04-24T15:10:24;1.83;;;1.70;;
8104;SDS011;4095;48.942;9.104;2023-04-24T15:12:50;2.87;;;1.87;;
8104;SDS011;4095;48.942;9.104;2023-04-24T15:15:16;1.93;;;1.73;;
8104;SDS011;4095;48.942;9.104;2023-04-24T15:17:42;2.27;;;2.00;;
8104;SDS011;4095;48.942;9.104;2023-04-24T15:20:08;2.70;;;2.03;;
8104;SDS011;4095;48.942;9.104;2023-04-24T15:22:34;2.83;;;1.80;;
8104;SDS011;4095;48.942;9.104;2023-04-24T15:24:59;3.43;;;1.77;;
8104;SDS011;4095;48.942;9.104;2023-04-24T15:27:26;2.00;;;1.80;;
8104;SDS011;4095;48.942;9.104;2023-04-24T15:29:51;3.40;;;1.97;;